<gpx creator="Cyclotour.ca" version="1.1" xmlns:gpsies="http://www.gpsies.com/GPX/1/0" xmlns:xsi="http://www.w3.org/2001/XMLSchema-instance" xmlns="http://www.topografix.com/GPX/1/1" xsi:schemaLocation="http://www.topografix.com/GPX/1/1 http://www.topografix.com/GPX/1/1/gpx.xsd http://www.gpsies.com/GPX/1/0 http://www.gpsies.com/gpsies.xsd">
<trk>
<name>DRUMMONDVILLE -   RIVE DE LA ST-FRANÇOIS a</name>
<trkseg>
<trkpt lat="45.933500000" lon="-72.423770000">
<ele>0</ele>
<time>2026-09-04T06:33:46Z</time>
</trkpt>
<trkpt lat="45.932840000" lon="-72.424570000">
<ele>0</ele>
<time>2026-09-04T06:33:47Z</time>
</trkpt>
<trkpt lat="45.931170000" lon="-72.426550000">
<ele>0</ele>
<time>2026-09-04T06:33:48Z</time>
</trkpt>
<trkpt lat="45.928310000" lon="-72.430060000">
<ele>0</ele>
<time>2026-09-04T06:33:49Z</time>
</trkpt>
<trkpt lat="45.925080000" lon="-72.433980000">
<ele>0</ele>
<time>2026-09-04T06:33:50Z</time>
</trkpt>
<trkpt lat="45.919600000" lon="-72.440650000">
<ele>0</ele>
<time>2026-09-04T06:33:51Z</time>
</trkpt>
<trkpt lat="45.913550000" lon="-72.447980000">
<ele>0</ele>
<time>2026-09-04T06:33:52Z</time>
</trkpt>
<trkpt lat="45.912530000" lon="-72.449210000">
<ele>0</ele>
<time>2026-09-04T06:33:53Z</time>
</trkpt>
<trkpt lat="45.913950000" lon="-72.450810000">
<ele>0</ele>
<time>2026-09-04T06:33:54Z</time>
</trkpt>
<trkpt lat="45.914090000" lon="-72.450970000">
<ele>0</ele>
<time>2026-09-04T06:33:55Z</time>
</trkpt>
<trkpt lat="45.915100000" lon="-72.452060000">
<ele>0</ele>
<time>2026-09-04T06:33:56Z</time>
</trkpt>
<trkpt lat="45.915900000" lon="-72.452690000">
<ele>0</ele>
<time>2026-09-04T06:33:57Z</time>
</trkpt>
<trkpt lat="45.915900000" lon="-72.452690000">
<ele>0</ele>
<time>2026-09-04T06:33:58Z</time>
</trkpt>
<trkpt lat="45.916620000" lon="-72.453120000">
<ele>0</ele>
<time>2026-09-04T06:33:59Z</time>
</trkpt>
<trkpt lat="45.918710000" lon="-72.454030000">
<ele>0</ele>
<time>2026-09-04T06:34:00Z</time>
</trkpt>
<trkpt lat="45.920120000" lon="-72.455070000">
<ele>0</ele>
<time>2026-09-04T06:34:01Z</time>
</trkpt>
<trkpt lat="45.920690000" lon="-72.455530000">
<ele>0</ele>
<time>2026-09-04T06:34:02Z</time>
</trkpt>
<trkpt lat="45.920990000" lon="-72.455780000">
<ele>0</ele>
<time>2026-09-04T06:34:03Z</time>
</trkpt>
<trkpt lat="45.921740000" lon="-72.456570000">
<ele>0</ele>
<time>2026-09-04T06:34:04Z</time>
</trkpt>
<trkpt lat="45.923460000" lon="-72.458800000">
<ele>0</ele>
<time>2026-09-04T06:34:05Z</time>
</trkpt>
<trkpt lat="45.923640000" lon="-72.459030000">
<ele>0</ele>
<time>2026-09-04T06:34:06Z</time>
</trkpt>
<trkpt lat="45.924120000" lon="-72.459520000">
<ele>0</ele>
<time>2026-09-04T06:34:07Z</time>
</trkpt>
<trkpt lat="45.925770000" lon="-72.460930000">
<ele>0</ele>
<time>2026-09-04T06:34:08Z</time>
</trkpt>
<trkpt lat="45.926440000" lon="-72.461680000">
<ele>0</ele>
<time>2026-09-04T06:34:09Z</time>
</trkpt>
<trkpt lat="45.926630000" lon="-72.461930000">
<ele>0</ele>
<time>2026-09-04T06:34:10Z</time>
</trkpt>
<trkpt lat="45.926830000" lon="-72.462220000">
<ele>0</ele>
<time>2026-09-04T06:34:11Z</time>
</trkpt>
<trkpt lat="45.927280000" lon="-72.463020000">
<ele>0</ele>
<time>2026-09-04T06:34:12Z</time>
</trkpt>
<trkpt lat="45.928150000" lon="-72.464660000">
<ele>0</ele>
<time>2026-09-04T06:34:13Z</time>
</trkpt>
<trkpt lat="45.928270000" lon="-72.464860000">
<ele>0</ele>
<time>2026-09-04T06:34:14Z</time>
</trkpt>
<trkpt lat="45.928360000" lon="-72.464930000">
<ele>0</ele>
<time>2026-09-04T06:34:15Z</time>
</trkpt>
<trkpt lat="45.928440000" lon="-72.464940000">
<ele>0</ele>
<time>2026-09-04T06:34:16Z</time>
</trkpt>
<trkpt lat="45.928650000" lon="-72.464900000">
<ele>0</ele>
<time>2026-09-04T06:34:17Z</time>
</trkpt>
<trkpt lat="45.930600000" lon="-72.462610000">
<ele>0</ele>
<time>2026-09-04T06:34:18Z</time>
</trkpt>
<trkpt lat="45.931580000" lon="-72.461470000">
<ele>0</ele>
<time>2026-09-04T06:34:19Z</time>
</trkpt>
<trkpt lat="45.932280000" lon="-72.460650000">
<ele>0</ele>
<time>2026-09-04T06:34:20Z</time>
</trkpt>
<trkpt lat="45.934040000" lon="-72.458580000">
<ele>0</ele>
<time>2026-09-04T06:34:21Z</time>
</trkpt>
<trkpt lat="45.935740000" lon="-72.456530000">
<ele>0</ele>
<time>2026-09-04T06:34:22Z</time>
</trkpt>
<trkpt lat="45.937800000" lon="-72.454020000">
<ele>0</ele>
<time>2026-09-04T06:34:23Z</time>
</trkpt>
<trkpt lat="45.938490000" lon="-72.453190000">
<ele>0</ele>
<time>2026-09-04T06:34:24Z</time>
</trkpt>
<trkpt lat="45.938930000" lon="-72.452650000">
<ele>0</ele>
<time>2026-09-04T06:34:25Z</time>
</trkpt>
<trkpt lat="45.939560000" lon="-72.451780000">
<ele>0</ele>
<time>2026-09-04T06:34:26Z</time>
</trkpt>
<trkpt lat="45.939800000" lon="-72.451430000">
<ele>0</ele>
<time>2026-09-04T06:34:27Z</time>
</trkpt>
<trkpt lat="45.940180000" lon="-72.450830000">
<ele>0</ele>
<time>2026-09-04T06:34:28Z</time>
</trkpt>
<trkpt lat="45.940280000" lon="-72.450610000">
<ele>0</ele>
<time>2026-09-04T06:34:29Z</time>
</trkpt>
<trkpt lat="45.940360000" lon="-72.450380000">
<ele>0</ele>
<time>2026-09-04T06:34:30Z</time>
</trkpt>
<trkpt lat="45.940410000" lon="-72.450140000">
<ele>0</ele>
<time>2026-09-04T06:34:31Z</time>
</trkpt>
<trkpt lat="45.940430000" lon="-72.449910000">
<ele>0</ele>
<time>2026-09-04T06:34:32Z</time>
</trkpt>
<trkpt lat="45.940430000" lon="-72.449140000">
<ele>0</ele>
<time>2026-09-04T06:34:33Z</time>
</trkpt>
<trkpt lat="45.940430000" lon="-72.447840000">
<ele>0</ele>
<time>2026-09-04T06:34:34Z</time>
</trkpt>
<trkpt lat="45.940470000" lon="-72.447450000">
<ele>0</ele>
<time>2026-09-04T06:34:35Z</time>
</trkpt>
<trkpt lat="45.940580000" lon="-72.446890000">
<ele>0</ele>
<time>2026-09-04T06:34:36Z</time>
</trkpt>
<trkpt lat="45.940760000" lon="-72.446390000">
<ele>0</ele>
<time>2026-09-04T06:34:37Z</time>
</trkpt>
<trkpt lat="45.941440000" lon="-72.444860000">
<ele>0</ele>
<time>2026-09-04T06:34:38Z</time>
</trkpt>
<trkpt lat="45.941620000" lon="-72.444490000">
<ele>0</ele>
<time>2026-09-04T06:34:39Z</time>
</trkpt>
<trkpt lat="45.941780000" lon="-72.444260000">
<ele>0</ele>
<time>2026-09-04T06:34:40Z</time>
</trkpt>
<trkpt lat="45.941890000" lon="-72.444170000">
<ele>0</ele>
<time>2026-09-04T06:34:41Z</time>
</trkpt>
<trkpt lat="45.942040000" lon="-72.444150000">
<ele>0</ele>
<time>2026-09-04T06:34:42Z</time>
</trkpt>
<trkpt lat="45.942230000" lon="-72.444240000">
<ele>0</ele>
<time>2026-09-04T06:34:43Z</time>
</trkpt>
<trkpt lat="45.942520000" lon="-72.444470000">
<ele>0</ele>
<time>2026-09-04T06:34:44Z</time>
</trkpt>
<trkpt lat="45.943240000" lon="-72.443580000">
<ele>0</ele>
<time>2026-09-04T06:34:45Z</time>
</trkpt>
<trkpt lat="45.943650000" lon="-72.444300000">
<ele>0</ele>
<time>2026-09-04T06:34:46Z</time>
</trkpt>
<trkpt lat="45.943810000" lon="-72.444580000">
<ele>0</ele>
<time>2026-09-04T06:34:47Z</time>
</trkpt>
<trkpt lat="45.943810000" lon="-72.444580000">
<ele>0</ele>
<time>2026-09-04T06:34:48Z</time>
</trkpt>
<trkpt lat="45.944980000" lon="-72.446700000">
<ele>0</ele>
<time>2026-09-04T06:34:49Z</time>
</trkpt>
<trkpt lat="45.946270000" lon="-72.449140000">
<ele>0</ele>
<time>2026-09-04T06:34:50Z</time>
</trkpt>
<trkpt lat="45.945910000" lon="-72.449500000">
<ele>0</ele>
<time>2026-09-04T06:34:51Z</time>
</trkpt>
<trkpt lat="45.945840000" lon="-72.449530000">
<ele>0</ele>
<time>2026-09-04T06:34:52Z</time>
</trkpt>
<trkpt lat="45.945840000" lon="-72.449530000">
<ele>0</ele>
<time>2026-09-04T06:34:53Z</time>
</trkpt>
<trkpt lat="45.945790000" lon="-72.449550000">
<ele>0</ele>
<time>2026-09-04T06:34:54Z</time>
</trkpt>
<trkpt lat="45.945690000" lon="-72.449560000">
<ele>0</ele>
<time>2026-09-04T06:34:55Z</time>
</trkpt>
<trkpt lat="45.945610000" lon="-72.449510000">
<ele>0</ele>
<time>2026-09-04T06:34:56Z</time>
</trkpt>
<trkpt lat="45.945500000" lon="-72.449340000">
<ele>0</ele>
<time>2026-09-04T06:34:57Z</time>
</trkpt>
<trkpt lat="45.944860000" lon="-72.448120000">
<ele>0</ele>
<time>2026-09-04T06:34:58Z</time>
</trkpt>
<trkpt lat="45.944690000" lon="-72.447930000">
<ele>0</ele>
<time>2026-09-04T06:34:59Z</time>
</trkpt>
<trkpt lat="45.944530000" lon="-72.447920000">
<ele>0</ele>
<time>2026-09-04T06:35:00Z</time>
</trkpt>
<trkpt lat="45.944450000" lon="-72.447960000">
<ele>0</ele>
<time>2026-09-04T06:35:01Z</time>
</trkpt>
<trkpt lat="45.944360000" lon="-72.448030000">
<ele>0</ele>
<time>2026-09-04T06:35:02Z</time>
</trkpt>
<trkpt lat="45.944230000" lon="-72.448190000">
<ele>0</ele>
<time>2026-09-04T06:35:03Z</time>
</trkpt>
<trkpt lat="45.944080000" lon="-72.448390000">
<ele>0</ele>
<time>2026-09-04T06:35:04Z</time>
</trkpt>
<trkpt lat="45.942720000" lon="-72.450030000">
<ele>0</ele>
<time>2026-09-04T06:35:05Z</time>
</trkpt>
<trkpt lat="45.941480000" lon="-72.451530000">
<ele>0</ele>
<time>2026-09-04T06:35:06Z</time>
</trkpt>
<trkpt lat="45.937820000" lon="-72.455950000">
<ele>0</ele>
<time>2026-09-04T06:35:07Z</time>
</trkpt>
<trkpt lat="45.937820000" lon="-72.455950000">
<ele>0</ele>
<time>2026-09-04T06:35:08Z</time>
</trkpt>
<trkpt lat="45.935550000" lon="-72.458660000">
<ele>0</ele>
<time>2026-09-04T06:35:09Z</time>
</trkpt>
<trkpt lat="45.934290000" lon="-72.460120000">
<ele>0</ele>
<time>2026-09-04T06:35:10Z</time>
</trkpt>
<trkpt lat="45.934140000" lon="-72.460290000">
<ele>0</ele>
<time>2026-09-04T06:35:11Z</time>
</trkpt>
<trkpt lat="45.933880000" lon="-72.460500000">
<ele>0</ele>
<time>2026-09-04T06:35:12Z</time>
</trkpt>
<trkpt lat="45.933650000" lon="-72.460720000">
<ele>0</ele>
<time>2026-09-04T06:35:13Z</time>
</trkpt>
<trkpt lat="45.933260000" lon="-72.461160000">
<ele>0</ele>
<time>2026-09-04T06:35:14Z</time>
</trkpt>
<trkpt lat="45.931920000" lon="-72.462710000">
<ele>0</ele>
<time>2026-09-04T06:35:15Z</time>
</trkpt>
<trkpt lat="45.931140000" lon="-72.463610000">
<ele>0</ele>
<time>2026-09-04T06:35:16Z</time>
</trkpt>
<trkpt lat="45.929180000" lon="-72.466010000">
<ele>0</ele>
<time>2026-09-04T06:35:17Z</time>
</trkpt>
<trkpt lat="45.928810000" lon="-72.466600000">
<ele>0</ele>
<time>2026-09-04T06:35:18Z</time>
</trkpt>
<trkpt lat="45.928190000" lon="-72.467400000">
<ele>0</ele>
<time>2026-09-04T06:35:19Z</time>
</trkpt>
<trkpt lat="45.923530000" lon="-72.472780000">
<ele>0</ele>
<time>2026-09-04T06:35:20Z</time>
</trkpt>
<trkpt lat="45.923530000" lon="-72.472780000">
<ele>0</ele>
<time>2026-09-04T06:35:21Z</time>
</trkpt>
<trkpt lat="45.923110000" lon="-72.473300000">
<ele>0</ele>
<time>2026-09-04T06:35:22Z</time>
</trkpt>
<trkpt lat="45.922910000" lon="-72.473530000">
<ele>0</ele>
<time>2026-09-04T06:35:23Z</time>
</trkpt>
<trkpt lat="45.922750000" lon="-72.473810000">
<ele>0</ele>
<time>2026-09-04T06:35:24Z</time>
</trkpt>
<trkpt lat="45.922650000" lon="-72.474100000">
<ele>0</ele>
<time>2026-09-04T06:35:25Z</time>
</trkpt>
<trkpt lat="45.922480000" lon="-72.474870000">
<ele>0</ele>
<time>2026-09-04T06:35:26Z</time>
</trkpt>
<trkpt lat="45.922480000" lon="-72.475370000">
<ele>0</ele>
<time>2026-09-04T06:35:27Z</time>
</trkpt>
<trkpt lat="45.922530000" lon="-72.475700000">
<ele>0</ele>
<time>2026-09-04T06:35:28Z</time>
</trkpt>
<trkpt lat="45.922670000" lon="-72.476150000">
<ele>0</ele>
<time>2026-09-04T06:35:29Z</time>
</trkpt>
<trkpt lat="45.923060000" lon="-72.476910000">
<ele>0</ele>
<time>2026-09-04T06:35:30Z</time>
</trkpt>
<trkpt lat="45.923270000" lon="-72.477330000">
<ele>0</ele>
<time>2026-09-04T06:35:31Z</time>
</trkpt>
<trkpt lat="45.923590000" lon="-72.477960000">
<ele>0</ele>
<time>2026-09-04T06:35:32Z</time>
</trkpt>
<trkpt lat="45.923710000" lon="-72.478250000">
<ele>0</ele>
<time>2026-09-04T06:35:33Z</time>
</trkpt>
<trkpt lat="45.923750000" lon="-72.478420000">
<ele>0</ele>
<time>2026-09-04T06:35:34Z</time>
</trkpt>
<trkpt lat="45.923810000" lon="-72.478850000">
<ele>0</ele>
<time>2026-09-04T06:35:35Z</time>
</trkpt>
<trkpt lat="45.923820000" lon="-72.479330000">
<ele>0</ele>
<time>2026-09-04T06:35:36Z</time>
</trkpt>
<trkpt lat="45.923780000" lon="-72.479710000">
<ele>0</ele>
<time>2026-09-04T06:35:37Z</time>
</trkpt>
<trkpt lat="45.923710000" lon="-72.479980000">
<ele>0</ele>
<time>2026-09-04T06:35:38Z</time>
</trkpt>
<trkpt lat="45.923630000" lon="-72.480200000">
<ele>0</ele>
<time>2026-09-04T06:35:39Z</time>
</trkpt>
<trkpt lat="45.923390000" lon="-72.480690000">
<ele>0</ele>
<time>2026-09-04T06:35:40Z</time>
</trkpt>
<trkpt lat="45.923250000" lon="-72.480870000">
<ele>0</ele>
<time>2026-09-04T06:35:41Z</time>
</trkpt>
<trkpt lat="45.922930000" lon="-72.481240000">
<ele>0</ele>
<time>2026-09-04T06:35:42Z</time>
</trkpt>
<trkpt lat="45.920690000" lon="-72.483840000">
<ele>0</ele>
<time>2026-09-04T06:35:43Z</time>
</trkpt>
<trkpt lat="45.920340000" lon="-72.484260000">
<ele>0</ele>
<time>2026-09-04T06:35:44Z</time>
</trkpt>
<trkpt lat="45.920340000" lon="-72.484260000">
<ele>0</ele>
<time>2026-09-04T06:35:45Z</time>
</trkpt>
<trkpt lat="45.920160000" lon="-72.484500000">
<ele>0</ele>
<time>2026-09-04T06:35:46Z</time>
</trkpt>
<trkpt lat="45.920050000" lon="-72.484670000">
<ele>0</ele>
<time>2026-09-04T06:35:47Z</time>
</trkpt>
<trkpt lat="45.919940000" lon="-72.484920000">
<ele>0</ele>
<time>2026-09-04T06:35:48Z</time>
</trkpt>
<trkpt lat="45.919820000" lon="-72.485280000">
<ele>0</ele>
<time>2026-09-04T06:35:49Z</time>
</trkpt>
<trkpt lat="45.921900000" lon="-72.485880000">
<ele>0</ele>
<time>2026-09-04T06:35:50Z</time>
</trkpt>
<trkpt lat="45.922650000" lon="-72.486040000">
<ele>0</ele>
<time>2026-09-04T06:35:51Z</time>
</trkpt>
<trkpt lat="45.922920000" lon="-72.486070000">
<ele>0</ele>
<time>2026-09-04T06:35:52Z</time>
</trkpt>
<trkpt lat="45.923960000" lon="-72.486120000">
<ele>0</ele>
<time>2026-09-04T06:35:53Z</time>
</trkpt>
<trkpt lat="45.924630000" lon="-72.486140000">
<ele>0</ele>
<time>2026-09-04T06:35:54Z</time>
</trkpt>
<trkpt lat="45.924630000" lon="-72.486140000">
<ele>0</ele>
<time>2026-09-04T06:35:55Z</time>
</trkpt>
<trkpt lat="45.925380000" lon="-72.486180000">
<ele>0</ele>
<time>2026-09-04T06:35:56Z</time>
</trkpt>
<trkpt lat="45.925910000" lon="-72.486250000">
<ele>0</ele>
<time>2026-09-04T06:35:57Z</time>
</trkpt>
<trkpt lat="45.927180000" lon="-72.486560000">
<ele>0</ele>
<time>2026-09-04T06:35:58Z</time>
</trkpt>
<trkpt lat="45.928080000" lon="-72.486730000">
<ele>0</ele>
<time>2026-09-04T06:35:59Z</time>
</trkpt>
<trkpt lat="45.928570000" lon="-72.486850000">
<ele>0</ele>
<time>2026-09-04T06:36:00Z</time>
</trkpt>
<trkpt lat="45.928950000" lon="-72.487000000">
<ele>0</ele>
<time>2026-09-04T06:36:01Z</time>
</trkpt>
<trkpt lat="45.929430000" lon="-72.487260000">
<ele>0</ele>
<time>2026-09-04T06:36:02Z</time>
</trkpt>
<trkpt lat="45.929810000" lon="-72.487510000">
<ele>0</ele>
<time>2026-09-04T06:36:03Z</time>
</trkpt>
<trkpt lat="45.930090000" lon="-72.487730000">
<ele>0</ele>
<time>2026-09-04T06:36:04Z</time>
</trkpt>
<trkpt lat="45.931300000" lon="-72.488820000">
<ele>0</ele>
<time>2026-09-04T06:36:05Z</time>
</trkpt>
<trkpt lat="45.932220000" lon="-72.489660000">
<ele>0</ele>
<time>2026-09-04T06:36:06Z</time>
</trkpt>
<trkpt lat="45.933010000" lon="-72.490300000">
<ele>0</ele>
<time>2026-09-04T06:36:07Z</time>
</trkpt>
<trkpt lat="45.934360000" lon="-72.491350000">
<ele>0</ele>
<time>2026-09-04T06:36:08Z</time>
</trkpt>
<trkpt lat="45.934740000" lon="-72.491660000">
<ele>0</ele>
<time>2026-09-04T06:36:09Z</time>
</trkpt>
<trkpt lat="45.935160000" lon="-72.492090000">
<ele>0</ele>
<time>2026-09-04T06:36:10Z</time>
</trkpt>
<trkpt lat="45.935800000" lon="-72.492860000">
<ele>0</ele>
<time>2026-09-04T06:36:11Z</time>
</trkpt>
<trkpt lat="45.936330000" lon="-72.493620000">
<ele>0</ele>
<time>2026-09-04T06:36:12Z</time>
</trkpt>
<trkpt lat="45.936680000" lon="-72.494120000">
<ele>0</ele>
<time>2026-09-04T06:36:13Z</time>
</trkpt>
<trkpt lat="45.937760000" lon="-72.495310000">
<ele>0</ele>
<time>2026-09-04T06:36:14Z</time>
</trkpt>
<trkpt lat="45.938350000" lon="-72.495990000">
<ele>0</ele>
<time>2026-09-04T06:36:15Z</time>
</trkpt>
<trkpt lat="45.938580000" lon="-72.496340000">
<ele>0</ele>
<time>2026-09-04T06:36:16Z</time>
</trkpt>
<trkpt lat="45.938710000" lon="-72.496640000">
<ele>0</ele>
<time>2026-09-04T06:36:17Z</time>
</trkpt>
<trkpt lat="45.938770000" lon="-72.496880000">
<ele>0</ele>
<time>2026-09-04T06:36:18Z</time>
</trkpt>
<trkpt lat="45.938950000" lon="-72.497690000">
<ele>0</ele>
<time>2026-09-04T06:36:19Z</time>
</trkpt>
<trkpt lat="45.939080000" lon="-72.498260000">
<ele>0</ele>
<time>2026-09-04T06:36:20Z</time>
</trkpt>
<trkpt lat="45.939330000" lon="-72.499000000">
<ele>0</ele>
<time>2026-09-04T06:36:21Z</time>
</trkpt>
<trkpt lat="45.939640000" lon="-72.499680000">
<ele>0</ele>
<time>2026-09-04T06:36:22Z</time>
</trkpt>
<trkpt lat="45.939850000" lon="-72.500090000">
<ele>0</ele>
<time>2026-09-04T06:36:23Z</time>
</trkpt>
<trkpt lat="45.940280000" lon="-72.500820000">
<ele>0</ele>
<time>2026-09-04T06:36:24Z</time>
</trkpt>
<trkpt lat="45.940510000" lon="-72.501220000">
<ele>0</ele>
<time>2026-09-04T06:36:25Z</time>
</trkpt>
<trkpt lat="45.941160000" lon="-72.502450000">
<ele>0</ele>
<time>2026-09-04T06:36:26Z</time>
</trkpt>
<trkpt lat="45.941470000" lon="-72.503070000">
<ele>0</ele>
<time>2026-09-04T06:36:27Z</time>
</trkpt>
<trkpt lat="45.941750000" lon="-72.503750000">
<ele>0</ele>
<time>2026-09-04T06:36:28Z</time>
</trkpt>
<trkpt lat="45.942010000" lon="-72.504430000">
<ele>0</ele>
<time>2026-09-04T06:36:29Z</time>
</trkpt>
<trkpt lat="45.942800000" lon="-72.506530000">
<ele>0</ele>
<time>2026-09-04T06:36:30Z</time>
</trkpt>
<trkpt lat="45.942930000" lon="-72.506950000">
<ele>0</ele>
<time>2026-09-04T06:36:31Z</time>
</trkpt>
<trkpt lat="45.943030000" lon="-72.507410000">
<ele>0</ele>
<time>2026-09-04T06:36:32Z</time>
</trkpt>
<trkpt lat="45.943120000" lon="-72.507940000">
<ele>0</ele>
<time>2026-09-04T06:36:33Z</time>
</trkpt>
<trkpt lat="45.943250000" lon="-72.508960000">
<ele>0</ele>
<time>2026-09-04T06:36:34Z</time>
</trkpt>
<trkpt lat="45.943370000" lon="-72.509890000">
<ele>0</ele>
<time>2026-09-04T06:36:35Z</time>
</trkpt>
<trkpt lat="45.943530000" lon="-72.510570000">
<ele>0</ele>
<time>2026-09-04T06:36:36Z</time>
</trkpt>
<trkpt lat="45.943640000" lon="-72.510970000">
<ele>0</ele>
<time>2026-09-04T06:36:37Z</time>
</trkpt>
<trkpt lat="45.943800000" lon="-72.511410000">
<ele>0</ele>
<time>2026-09-04T06:36:38Z</time>
</trkpt>
<trkpt lat="45.943900000" lon="-72.511620000">
<ele>0</ele>
<time>2026-09-04T06:36:39Z</time>
</trkpt>
<trkpt lat="45.944820000" lon="-72.513580000">
<ele>0</ele>
<time>2026-09-04T06:36:40Z</time>
</trkpt>
<trkpt lat="45.946210000" lon="-72.516490000">
<ele>0</ele>
<time>2026-09-04T06:36:41Z</time>
</trkpt>
<trkpt lat="45.947260000" lon="-72.518720000">
<ele>0</ele>
<time>2026-09-04T06:36:42Z</time>
</trkpt>
<trkpt lat="45.947730000" lon="-72.519730000">
<ele>0</ele>
<time>2026-09-04T06:36:43Z</time>
</trkpt>
<trkpt lat="45.948300000" lon="-72.521140000">
<ele>0</ele>
<time>2026-09-04T06:36:44Z</time>
</trkpt>
<trkpt lat="45.948570000" lon="-72.521810000">
<ele>0</ele>
<time>2026-09-04T06:36:45Z</time>
</trkpt>
<trkpt lat="45.948810000" lon="-72.522320000">
<ele>0</ele>
<time>2026-09-04T06:36:46Z</time>
</trkpt>
<trkpt lat="45.949140000" lon="-72.522900000">
<ele>0</ele>
<time>2026-09-04T06:36:47Z</time>
</trkpt>
<trkpt lat="45.950110000" lon="-72.524330000">
<ele>0</ele>
<time>2026-09-04T06:36:48Z</time>
</trkpt>
<trkpt lat="45.950320000" lon="-72.524620000">
<ele>0</ele>
<time>2026-09-04T06:36:49Z</time>
</trkpt>
<trkpt lat="45.950890000" lon="-72.525260000">
<ele>0</ele>
<time>2026-09-04T06:36:50Z</time>
</trkpt>
<trkpt lat="45.951060000" lon="-72.525540000">
<ele>0</ele>
<time>2026-09-04T06:36:51Z</time>
</trkpt>
<trkpt lat="45.951230000" lon="-72.525860000">
<ele>0</ele>
<time>2026-09-04T06:36:52Z</time>
</trkpt>
<trkpt lat="45.951480000" lon="-72.526370000">
<ele>0</ele>
<time>2026-09-04T06:36:53Z</time>
</trkpt>
<trkpt lat="45.951780000" lon="-72.527090000">
<ele>0</ele>
<time>2026-09-04T06:36:54Z</time>
</trkpt>
<trkpt lat="45.952170000" lon="-72.528170000">
<ele>0</ele>
<time>2026-09-04T06:36:55Z</time>
</trkpt>
<trkpt lat="45.952630000" lon="-72.529350000">
<ele>0</ele>
<time>2026-09-04T06:36:56Z</time>
</trkpt>
<trkpt lat="45.952840000" lon="-72.529710000">
<ele>0</ele>
<time>2026-09-04T06:36:57Z</time>
</trkpt>
<trkpt lat="45.953460000" lon="-72.530630000">
<ele>0</ele>
<time>2026-09-04T06:36:58Z</time>
</trkpt>
<trkpt lat="45.955660000" lon="-72.534050000">
<ele>0</ele>
<time>2026-09-04T06:36:59Z</time>
</trkpt>
<trkpt lat="45.956280000" lon="-72.534990000">
<ele>0</ele>
<time>2026-09-04T06:37:00Z</time>
</trkpt>
<trkpt lat="45.956670000" lon="-72.535520000">
<ele>0</ele>
<time>2026-09-04T06:37:01Z</time>
</trkpt>
<trkpt lat="45.956930000" lon="-72.535810000">
<ele>0</ele>
<time>2026-09-04T06:37:02Z</time>
</trkpt>
<trkpt lat="45.957070000" lon="-72.535930000">
<ele>0</ele>
<time>2026-09-04T06:37:03Z</time>
</trkpt>
<trkpt lat="45.957150000" lon="-72.535990000">
<ele>0</ele>
<time>2026-09-04T06:37:04Z</time>
</trkpt>
<trkpt lat="45.957620000" lon="-72.536200000">
<ele>0</ele>
<time>2026-09-04T06:37:05Z</time>
</trkpt>
<trkpt lat="45.958720000" lon="-72.536620000">
<ele>0</ele>
<time>2026-09-04T06:37:06Z</time>
</trkpt>
<trkpt lat="45.960050000" lon="-72.537170000">
<ele>0</ele>
<time>2026-09-04T06:37:07Z</time>
</trkpt>
<trkpt lat="45.960880000" lon="-72.537520000">
<ele>0</ele>
<time>2026-09-04T06:37:08Z</time>
</trkpt>
<trkpt lat="45.961780000" lon="-72.537850000">
<ele>0</ele>
<time>2026-09-04T06:37:09Z</time>
</trkpt>
<trkpt lat="45.963000000" lon="-72.538300000">
<ele>0</ele>
<time>2026-09-04T06:37:10Z</time>
</trkpt>
<trkpt lat="45.963170000" lon="-72.538400000">
<ele>0</ele>
<time>2026-09-04T06:37:11Z</time>
</trkpt>
<trkpt lat="45.963270000" lon="-72.538500000">
<ele>0</ele>
<time>2026-09-04T06:37:12Z</time>
</trkpt>
<trkpt lat="45.964080000" lon="-72.539640000">
<ele>0</ele>
<time>2026-09-04T06:37:13Z</time>
</trkpt>
<trkpt lat="45.964280000" lon="-72.539940000">
<ele>0</ele>
<time>2026-09-04T06:37:14Z</time>
</trkpt>
<trkpt lat="45.964460000" lon="-72.540340000">
<ele>0</ele>
<time>2026-09-04T06:37:15Z</time>
</trkpt>
<trkpt lat="45.964520000" lon="-72.540590000">
<ele>0</ele>
<time>2026-09-04T06:37:16Z</time>
</trkpt>
<trkpt lat="45.964570000" lon="-72.540990000">
<ele>0</ele>
<time>2026-09-04T06:37:17Z</time>
</trkpt>
<trkpt lat="45.964720000" lon="-72.542500000">
<ele>0</ele>
<time>2026-09-04T06:37:18Z</time>
</trkpt>
<trkpt lat="45.964800000" lon="-72.542870000">
<ele>0</ele>
<time>2026-09-04T06:37:19Z</time>
</trkpt>
<trkpt lat="45.964870000" lon="-72.543110000">
<ele>0</ele>
<time>2026-09-04T06:37:20Z</time>
</trkpt>
<trkpt lat="45.965010000" lon="-72.543450000">
<ele>0</ele>
<time>2026-09-04T06:37:21Z</time>
</trkpt>
<trkpt lat="45.965140000" lon="-72.543680000">
<ele>0</ele>
<time>2026-09-04T06:37:22Z</time>
</trkpt>
<trkpt lat="45.965400000" lon="-72.544060000">
<ele>0</ele>
<time>2026-09-04T06:37:23Z</time>
</trkpt>
<trkpt lat="45.965850000" lon="-72.544600000">
<ele>0</ele>
<time>2026-09-04T06:37:24Z</time>
</trkpt>
<trkpt lat="45.966250000" lon="-72.545060000">
<ele>0</ele>
<time>2026-09-04T06:37:25Z</time>
</trkpt>
<trkpt lat="45.966390000" lon="-72.545290000">
<ele>0</ele>
<time>2026-09-04T06:37:26Z</time>
</trkpt>
<trkpt lat="45.966490000" lon="-72.545500000">
<ele>0</ele>
<time>2026-09-04T06:37:27Z</time>
</trkpt>
<trkpt lat="45.967090000" lon="-72.546800000">
<ele>0</ele>
<time>2026-09-04T06:37:28Z</time>
</trkpt>
<trkpt lat="45.967310000" lon="-72.547200000">
<ele>0</ele>
<time>2026-09-04T06:37:29Z</time>
</trkpt>
<trkpt lat="45.967440000" lon="-72.547380000">
<ele>0</ele>
<time>2026-09-04T06:37:30Z</time>
</trkpt>
<trkpt lat="45.967580000" lon="-72.547550000">
<ele>0</ele>
<time>2026-09-04T06:37:31Z</time>
</trkpt>
<trkpt lat="45.968020000" lon="-72.548030000">
<ele>0</ele>
<time>2026-09-04T06:37:32Z</time>
</trkpt>
<trkpt lat="45.968300000" lon="-72.548310000">
<ele>0</ele>
<time>2026-09-04T06:37:33Z</time>
</trkpt>
<trkpt lat="45.968610000" lon="-72.548570000">
<ele>0</ele>
<time>2026-09-04T06:37:34Z</time>
</trkpt>
<trkpt lat="45.968870000" lon="-72.548730000">
<ele>0</ele>
<time>2026-09-04T06:37:35Z</time>
</trkpt>
<trkpt lat="45.969030000" lon="-72.548800000">
<ele>0</ele>
<time>2026-09-04T06:37:36Z</time>
</trkpt>
<trkpt lat="45.969120000" lon="-72.548820000">
<ele>0</ele>
<time>2026-09-04T06:37:37Z</time>
</trkpt>
<trkpt lat="45.969250000" lon="-72.548830000">
<ele>0</ele>
<time>2026-09-04T06:37:38Z</time>
</trkpt>
<trkpt lat="45.969300000" lon="-72.548840000">
<ele>0</ele>
<time>2026-09-04T06:37:39Z</time>
</trkpt>
<trkpt lat="45.969450000" lon="-72.548830000">
<ele>0</ele>
<time>2026-09-04T06:37:40Z</time>
</trkpt>
<trkpt lat="45.969960000" lon="-72.548710000">
<ele>0</ele>
<time>2026-09-04T06:37:41Z</time>
</trkpt>
<trkpt lat="45.970440000" lon="-72.548630000">
<ele>0</ele>
<time>2026-09-04T06:37:42Z</time>
</trkpt>
<trkpt lat="45.971230000" lon="-72.548580000">
<ele>0</ele>
<time>2026-09-04T06:37:43Z</time>
</trkpt>
<trkpt lat="45.971670000" lon="-72.548580000">
<ele>0</ele>
<time>2026-09-04T06:37:44Z</time>
</trkpt>
<trkpt lat="45.972130000" lon="-72.548540000">
<ele>0</ele>
<time>2026-09-04T06:37:45Z</time>
</trkpt>
<trkpt lat="45.972550000" lon="-72.548450000">
<ele>0</ele>
<time>2026-09-04T06:37:46Z</time>
</trkpt>
<trkpt lat="45.972840000" lon="-72.548340000">
<ele>0</ele>
<time>2026-09-04T06:37:47Z</time>
</trkpt>
<trkpt lat="45.972950000" lon="-72.548300000">
<ele>0</ele>
<time>2026-09-04T06:37:48Z</time>
</trkpt>
<trkpt lat="45.973090000" lon="-72.548280000">
<ele>0</ele>
<time>2026-09-04T06:37:49Z</time>
</trkpt>
<trkpt lat="45.973210000" lon="-72.548280000">
<ele>0</ele>
<time>2026-09-04T06:37:50Z</time>
</trkpt>
<trkpt lat="45.973350000" lon="-72.548320000">
<ele>0</ele>
<time>2026-09-04T06:37:51Z</time>
</trkpt>
<trkpt lat="45.973450000" lon="-72.548370000">
<ele>0</ele>
<time>2026-09-04T06:37:52Z</time>
</trkpt>
<trkpt lat="45.973580000" lon="-72.548470000">
<ele>0</ele>
<time>2026-09-04T06:37:53Z</time>
</trkpt>
<trkpt lat="45.973670000" lon="-72.548590000">
<ele>0</ele>
<time>2026-09-04T06:37:54Z</time>
</trkpt>
<trkpt lat="45.973790000" lon="-72.548880000">
<ele>0</ele>
<time>2026-09-04T06:37:55Z</time>
</trkpt>
<trkpt lat="45.974080000" lon="-72.549730000">
<ele>0</ele>
<time>2026-09-04T06:37:56Z</time>
</trkpt>
<trkpt lat="45.974290000" lon="-72.550260000">
<ele>0</ele>
<time>2026-09-04T06:37:57Z</time>
</trkpt>
<trkpt lat="45.977100000" lon="-72.546240000">
<ele>0</ele>
<time>2026-09-04T06:37:58Z</time>
</trkpt>
<trkpt lat="45.977490000" lon="-72.545670000">
<ele>0</ele>
<time>2026-09-04T06:37:59Z</time>
</trkpt>
<trkpt lat="45.977490000" lon="-72.545670000">
<ele>0</ele>
<time>2026-09-04T06:38:00Z</time>
</trkpt>
<trkpt lat="45.979140000" lon="-72.543320000">
<ele>0</ele>
<time>2026-09-04T06:38:01Z</time>
</trkpt>
<trkpt lat="45.980610000" lon="-72.541050000">
<ele>0</ele>
<time>2026-09-04T06:38:02Z</time>
</trkpt>
<trkpt lat="45.982320000" lon="-72.538390000">
<ele>0</ele>
<time>2026-09-04T06:38:03Z</time>
</trkpt>
<trkpt lat="45.984910000" lon="-72.534440000">
<ele>0</ele>
<time>2026-09-04T06:38:04Z</time>
</trkpt>
<trkpt lat="45.989240000" lon="-72.527850000">
<ele>0</ele>
<time>2026-09-04T06:38:05Z</time>
</trkpt>
<trkpt lat="45.991790000" lon="-72.532530000">
<ele>0</ele>
<time>2026-09-04T06:38:06Z</time>
</trkpt>
<trkpt lat="45.991790000" lon="-72.532530000">
<ele>0</ele>
<time>2026-09-04T06:38:07Z</time>
</trkpt>
<trkpt lat="45.992340000" lon="-72.533510000">
<ele>0</ele>
<time>2026-09-04T06:38:08Z</time>
</trkpt>
<trkpt lat="45.992920000" lon="-72.534420000">
<ele>0</ele>
<time>2026-09-04T06:38:09Z</time>
</trkpt>
<trkpt lat="45.993960000" lon="-72.535890000">
<ele>0</ele>
<time>2026-09-04T06:38:10Z</time>
</trkpt>
<trkpt lat="45.994280000" lon="-72.536320000">
<ele>0</ele>
<time>2026-09-04T06:38:11Z</time>
</trkpt>
<trkpt lat="45.995090000" lon="-72.535080000">
<ele>0</ele>
<time>2026-09-04T06:38:12Z</time>
</trkpt>
<trkpt lat="45.996320000" lon="-72.533190000">
<ele>0</ele>
<time>2026-09-04T06:38:13Z</time>
</trkpt>
<trkpt lat="45.998400000" lon="-72.529970000">
<ele>0</ele>
<time>2026-09-04T06:38:14Z</time>
</trkpt>
<trkpt lat="45.999950000" lon="-72.527600000">
<ele>0</ele>
<time>2026-09-04T06:38:15Z</time>
</trkpt>
<trkpt lat="46.001650000" lon="-72.525030000">
<ele>0</ele>
<time>2026-09-04T06:38:16Z</time>
</trkpt>
<trkpt lat="46.004640000" lon="-72.520540000">
<ele>0</ele>
<time>2026-09-04T06:38:17Z</time>
</trkpt>
<trkpt lat="46.009730000" lon="-72.512870000">
<ele>0</ele>
<time>2026-09-04T06:38:18Z</time>
</trkpt>
<trkpt lat="46.011350000" lon="-72.510430000">
<ele>0</ele>
<time>2026-09-04T06:38:19Z</time>
</trkpt>
<trkpt lat="46.013320000" lon="-72.507420000">
<ele>0</ele>
<time>2026-09-04T06:38:20Z</time>
</trkpt>
<trkpt lat="46.014270000" lon="-72.505870000">
<ele>0</ele>
<time>2026-09-04T06:38:21Z</time>
</trkpt>
<trkpt lat="46.015100000" lon="-72.504490000">
<ele>0</ele>
<time>2026-09-04T06:38:22Z</time>
</trkpt>
<trkpt lat="46.016150000" lon="-72.502730000">
<ele>0</ele>
<time>2026-09-04T06:38:23Z</time>
</trkpt>
<trkpt lat="46.019640000" lon="-72.497020000">
<ele>0</ele>
<time>2026-09-04T06:38:24Z</time>
</trkpt>
<trkpt lat="46.020770000" lon="-72.495190000">
<ele>0</ele>
<time>2026-09-04T06:38:25Z</time>
</trkpt>
<trkpt lat="46.022010000" lon="-72.493200000">
<ele>0</ele>
<time>2026-09-04T06:38:26Z</time>
</trkpt>
<trkpt lat="46.022010000" lon="-72.493200000">
<ele>0</ele>
<time>2026-09-04T06:38:27Z</time>
</trkpt>
<trkpt lat="46.022950000" lon="-72.491740000">
<ele>0</ele>
<time>2026-09-04T06:38:28Z</time>
</trkpt>
<trkpt lat="46.023520000" lon="-72.490750000">
<ele>0</ele>
<time>2026-09-04T06:38:29Z</time>
</trkpt>
<trkpt lat="46.023970000" lon="-72.489770000">
<ele>0</ele>
<time>2026-09-04T06:38:30Z</time>
</trkpt>
<trkpt lat="46.024130000" lon="-72.489390000">
<ele>0</ele>
<time>2026-09-04T06:38:31Z</time>
</trkpt>
<trkpt lat="46.024570000" lon="-72.488170000">
<ele>0</ele>
<time>2026-09-04T06:38:32Z</time>
</trkpt>
<trkpt lat="46.024920000" lon="-72.487190000">
<ele>0</ele>
<time>2026-09-04T06:38:33Z</time>
</trkpt>
<trkpt lat="46.025020000" lon="-72.486920000">
<ele>0</ele>
<time>2026-09-04T06:38:34Z</time>
</trkpt>
<trkpt lat="46.025150000" lon="-72.486770000">
<ele>0</ele>
<time>2026-09-04T06:38:35Z</time>
</trkpt>
<trkpt lat="46.025270000" lon="-72.486710000">
<ele>0</ele>
<time>2026-09-04T06:38:36Z</time>
</trkpt>
<trkpt lat="46.025340000" lon="-72.486670000">
<ele>0</ele>
<time>2026-09-04T06:38:37Z</time>
</trkpt>
<trkpt lat="46.025560000" lon="-72.486810000">
<ele>0</ele>
<time>2026-09-04T06:38:38Z</time>
</trkpt>
<trkpt lat="46.025880000" lon="-72.487050000">
<ele>0</ele>
<time>2026-09-04T06:38:39Z</time>
</trkpt>
<trkpt lat="46.026050000" lon="-72.487180000">
<ele>0</ele>
<time>2026-09-04T06:38:40Z</time>
</trkpt>
<trkpt lat="46.026050000" lon="-72.487180000">
<ele>0</ele>
<time>2026-09-04T06:38:41Z</time>
</trkpt>
<trkpt lat="46.026340000" lon="-72.487400000">
<ele>0</ele>
<time>2026-09-04T06:38:42Z</time>
</trkpt>
<trkpt lat="46.026440000" lon="-72.487430000">
<ele>0</ele>
<time>2026-09-04T06:38:43Z</time>
</trkpt>
<trkpt lat="46.026520000" lon="-72.487440000">
<ele>0</ele>
<time>2026-09-04T06:38:44Z</time>
</trkpt>
<trkpt lat="46.026610000" lon="-72.487440000">
<ele>0</ele>
<time>2026-09-04T06:38:45Z</time>
</trkpt>
<trkpt lat="46.026690000" lon="-72.487390000">
<ele>0</ele>
<time>2026-09-04T06:38:46Z</time>
</trkpt>
<trkpt lat="46.026830000" lon="-72.487220000">
<ele>0</ele>
<time>2026-09-04T06:38:47Z</time>
</trkpt>
<trkpt lat="46.026950000" lon="-72.487020000">
<ele>0</ele>
<time>2026-09-04T06:38:48Z</time>
</trkpt>
<trkpt lat="46.027170000" lon="-72.487440000">
<ele>0</ele>
<time>2026-09-04T06:38:49Z</time>
</trkpt>
<trkpt lat="46.027790000" lon="-72.488230000">
<ele>0</ele>
<time>2026-09-04T06:38:50Z</time>
</trkpt>
<trkpt lat="46.028170000" lon="-72.488640000">
<ele>0</ele>
<time>2026-09-04T06:38:51Z</time>
</trkpt>
<trkpt lat="46.028170000" lon="-72.488640000">
<ele>0</ele>
<time>2026-09-04T06:38:52Z</time>
</trkpt>
<trkpt lat="46.028500000" lon="-72.489010000">
<ele>0</ele>
<time>2026-09-04T06:38:53Z</time>
</trkpt>
<trkpt lat="46.029130000" lon="-72.487930000">
<ele>0</ele>
<time>2026-09-04T06:38:54Z</time>
</trkpt>
<trkpt lat="46.029410000" lon="-72.487520000">
<ele>0</ele>
<time>2026-09-04T06:38:55Z</time>
</trkpt>
<trkpt lat="46.029920000" lon="-72.486870000">
<ele>0</ele>
<time>2026-09-04T06:38:56Z</time>
</trkpt>
<trkpt lat="46.030200000" lon="-72.486570000">
<ele>0</ele>
<time>2026-09-04T06:38:57Z</time>
</trkpt>
<trkpt lat="46.030320000" lon="-72.486410000">
<ele>0</ele>
<time>2026-09-04T06:38:58Z</time>
</trkpt>
<trkpt lat="46.030640000" lon="-72.485830000">
<ele>0</ele>
<time>2026-09-04T06:38:59Z</time>
</trkpt>
<trkpt lat="46.030810000" lon="-72.485420000">
<ele>0</ele>
<time>2026-09-04T06:39:00Z</time>
</trkpt>
<trkpt lat="46.031010000" lon="-72.484730000">
<ele>0</ele>
<time>2026-09-04T06:39:01Z</time>
</trkpt>
<trkpt lat="46.031070000" lon="-72.484490000">
<ele>0</ele>
<time>2026-09-04T06:39:02Z</time>
</trkpt>
<trkpt lat="46.031250000" lon="-72.483750000">
<ele>0</ele>
<time>2026-09-04T06:39:03Z</time>
</trkpt>
<trkpt lat="46.031360000" lon="-72.482990000">
<ele>0</ele>
<time>2026-09-04T06:39:04Z</time>
</trkpt>
<trkpt lat="46.031470000" lon="-72.482020000">
<ele>0</ele>
<time>2026-09-04T06:39:05Z</time>
</trkpt>
<trkpt lat="46.031470000" lon="-72.482020000">
<ele>0</ele>
<time>2026-09-04T06:39:06Z</time>
</trkpt>
<trkpt lat="46.031520000" lon="-72.481430000">
<ele>0</ele>
<time>2026-09-04T06:39:07Z</time>
</trkpt>
<trkpt lat="46.031660000" lon="-72.480440000">
<ele>0</ele>
<time>2026-09-04T06:39:08Z</time>
</trkpt>
<trkpt lat="46.031850000" lon="-72.479170000">
<ele>0</ele>
<time>2026-09-04T06:39:09Z</time>
</trkpt>
<trkpt lat="46.031990000" lon="-72.478160000">
<ele>0</ele>
<time>2026-09-04T06:39:10Z</time>
</trkpt>
<trkpt lat="46.032130000" lon="-72.477140000">
<ele>0</ele>
<time>2026-09-04T06:39:11Z</time>
</trkpt>
<trkpt lat="46.032160000" lon="-72.476620000">
<ele>0</ele>
<time>2026-09-04T06:39:12Z</time>
</trkpt>
<trkpt lat="46.032180000" lon="-72.476040000">
<ele>0</ele>
<time>2026-09-04T06:39:13Z</time>
</trkpt>
<trkpt lat="46.032150000" lon="-72.475530000">
<ele>0</ele>
<time>2026-09-04T06:39:14Z</time>
</trkpt>
<trkpt lat="46.031730000" lon="-72.471560000">
<ele>0</ele>
<time>2026-09-04T06:39:15Z</time>
</trkpt>
<trkpt lat="46.031710000" lon="-72.471110000">
<ele>0</ele>
<time>2026-09-04T06:39:16Z</time>
</trkpt>
<trkpt lat="46.031720000" lon="-72.470750000">
<ele>0</ele>
<time>2026-09-04T06:39:17Z</time>
</trkpt>
<trkpt lat="46.031800000" lon="-72.470190000">
<ele>0</ele>
<time>2026-09-04T06:39:18Z</time>
</trkpt>
<trkpt lat="46.031910000" lon="-72.469590000">
<ele>0</ele>
<time>2026-09-04T06:39:19Z</time>
</trkpt>
<trkpt lat="46.032750000" lon="-72.466450000">
<ele>0</ele>
<time>2026-09-04T06:39:20Z</time>
</trkpt>
<trkpt lat="46.033190000" lon="-72.464730000">
<ele>0</ele>
<time>2026-09-04T06:39:21Z</time>
</trkpt>
<trkpt lat="46.033320000" lon="-72.464070000">
<ele>0</ele>
<time>2026-09-04T06:39:22Z</time>
</trkpt>
<trkpt lat="46.033530000" lon="-72.462840000">
<ele>0</ele>
<time>2026-09-04T06:39:23Z</time>
</trkpt>
<trkpt lat="46.033730000" lon="-72.461930000">
<ele>0</ele>
<time>2026-09-04T06:39:24Z</time>
</trkpt>
<trkpt lat="46.033850000" lon="-72.461500000">
<ele>0</ele>
<time>2026-09-04T06:39:25Z</time>
</trkpt>
<trkpt lat="46.034090000" lon="-72.460830000">
<ele>0</ele>
<time>2026-09-04T06:39:26Z</time>
</trkpt>
<trkpt lat="46.034290000" lon="-72.460410000">
<ele>0</ele>
<time>2026-09-04T06:39:27Z</time>
</trkpt>
<trkpt lat="46.034780000" lon="-72.459570000">
<ele>0</ele>
<time>2026-09-04T06:39:28Z</time>
</trkpt>
<trkpt lat="46.035240000" lon="-72.458830000">
<ele>0</ele>
<time>2026-09-04T06:39:29Z</time>
</trkpt>
<trkpt lat="46.035510000" lon="-72.458300000">
<ele>0</ele>
<time>2026-09-04T06:39:30Z</time>
</trkpt>
<trkpt lat="46.035670000" lon="-72.457910000">
<ele>0</ele>
<time>2026-09-04T06:39:31Z</time>
</trkpt>
<trkpt lat="46.035770000" lon="-72.457620000">
<ele>0</ele>
<time>2026-09-04T06:39:32Z</time>
</trkpt>
<trkpt lat="46.035870000" lon="-72.457240000">
<ele>0</ele>
<time>2026-09-04T06:39:33Z</time>
</trkpt>
<trkpt lat="46.036290000" lon="-72.455330000">
<ele>0</ele>
<time>2026-09-04T06:39:34Z</time>
</trkpt>
<trkpt lat="46.036450000" lon="-72.454330000">
<ele>0</ele>
<time>2026-09-04T06:39:35Z</time>
</trkpt>
<trkpt lat="46.036510000" lon="-72.453650000">
<ele>0</ele>
<time>2026-09-04T06:39:36Z</time>
</trkpt>
<trkpt lat="46.036640000" lon="-72.451970000">
<ele>0</ele>
<time>2026-09-04T06:39:37Z</time>
</trkpt>
<trkpt lat="46.037190000" lon="-72.444790000">
<ele>0</ele>
<time>2026-09-04T06:39:38Z</time>
</trkpt>
<trkpt lat="46.037270000" lon="-72.444250000">
<ele>0</ele>
<time>2026-09-04T06:39:39Z</time>
</trkpt>
<trkpt lat="46.037330000" lon="-72.444010000">
<ele>0</ele>
<time>2026-09-04T06:39:40Z</time>
</trkpt>
<trkpt lat="46.037400000" lon="-72.443690000">
<ele>0</ele>
<time>2026-09-04T06:39:41Z</time>
</trkpt>
<trkpt lat="46.037540000" lon="-72.443290000">
<ele>0</ele>
<time>2026-09-04T06:39:42Z</time>
</trkpt>
<trkpt lat="46.037620000" lon="-72.443060000">
<ele>0</ele>
<time>2026-09-04T06:39:43Z</time>
</trkpt>
<trkpt lat="46.037780000" lon="-72.442690000">
<ele>0</ele>
<time>2026-09-04T06:39:44Z</time>
</trkpt>
<trkpt lat="46.037930000" lon="-72.442380000">
<ele>0</ele>
<time>2026-09-04T06:39:45Z</time>
</trkpt>
<trkpt lat="46.038220000" lon="-72.441870000">
<ele>0</ele>
<time>2026-09-04T06:39:46Z</time>
</trkpt>
<trkpt lat="46.038380000" lon="-72.441640000">
<ele>0</ele>
<time>2026-09-04T06:39:47Z</time>
</trkpt>
<trkpt lat="46.038670000" lon="-72.441310000">
<ele>0</ele>
<time>2026-09-04T06:39:48Z</time>
</trkpt>
<trkpt lat="46.039510000" lon="-72.440340000">
<ele>0</ele>
<time>2026-09-04T06:39:49Z</time>
</trkpt>
<trkpt lat="46.041480000" lon="-72.438070000">
<ele>0</ele>
<time>2026-09-04T06:39:50Z</time>
</trkpt>
<trkpt lat="46.043030000" lon="-72.436300000">
<ele>0</ele>
<time>2026-09-04T06:39:51Z</time>
</trkpt>
<trkpt lat="46.043590000" lon="-72.435660000">
<ele>0</ele>
<time>2026-09-04T06:39:52Z</time>
</trkpt>
<trkpt lat="46.044570000" lon="-72.434510000">
<ele>0</ele>
<time>2026-09-04T06:39:53Z</time>
</trkpt>
<trkpt lat="46.045490000" lon="-72.433390000">
<ele>0</ele>
<time>2026-09-04T06:39:54Z</time>
</trkpt>
<trkpt lat="46.046990000" lon="-72.431530000">
<ele>0</ele>
<time>2026-09-04T06:39:55Z</time>
</trkpt>
<trkpt lat="46.047670000" lon="-72.430690000">
<ele>0</ele>
<time>2026-09-04T06:39:56Z</time>
</trkpt>
<trkpt lat="46.050810000" lon="-72.426810000">
<ele>0</ele>
<time>2026-09-04T06:39:57Z</time>
</trkpt>
<trkpt lat="46.053130000" lon="-72.423940000">
<ele>0</ele>
<time>2026-09-04T06:39:58Z</time>
</trkpt>
<trkpt lat="46.055760000" lon="-72.420710000">
<ele>0</ele>
<time>2026-09-04T06:39:59Z</time>
</trkpt>
<trkpt lat="46.056650000" lon="-72.422300000">
<ele>0</ele>
<time>2026-09-04T06:40:00Z</time>
</trkpt>
<trkpt lat="46.056650000" lon="-72.422300000">
<ele>0</ele>
<time>2026-09-04T06:40:01Z</time>
</trkpt>
<trkpt lat="46.058810000" lon="-72.426160000">
<ele>0</ele>
<time>2026-09-04T06:40:02Z</time>
</trkpt>
<trkpt lat="46.059350000" lon="-72.427040000">
<ele>0</ele>
<time>2026-09-04T06:40:03Z</time>
</trkpt>
<trkpt lat="46.059550000" lon="-72.427290000">
<ele>0</ele>
<time>2026-09-04T06:40:04Z</time>
</trkpt>
<trkpt lat="46.059850000" lon="-72.427650000">
<ele>0</ele>
<time>2026-09-04T06:40:05Z</time>
</trkpt>
<trkpt lat="46.060200000" lon="-72.427970000">
<ele>0</ele>
<time>2026-09-04T06:40:06Z</time>
</trkpt>
<trkpt lat="46.060520000" lon="-72.428290000">
<ele>0</ele>
<time>2026-09-04T06:40:07Z</time>
</trkpt>
<trkpt lat="46.060850000" lon="-72.428680000">
<ele>0</ele>
<time>2026-09-04T06:40:08Z</time>
</trkpt>
<trkpt lat="46.060980000" lon="-72.428850000">
<ele>0</ele>
<time>2026-09-04T06:40:09Z</time>
</trkpt>
<trkpt lat="46.061630000" lon="-72.429880000">
<ele>0</ele>
<time>2026-09-04T06:40:10Z</time>
</trkpt>
<trkpt lat="46.064620000" lon="-72.435300000">
<ele>0</ele>
<time>2026-09-04T06:40:11Z</time>
</trkpt>
<trkpt lat="46.066130000" lon="-72.438020000">
<ele>0</ele>
<time>2026-09-04T06:40:12Z</time>
</trkpt>
<trkpt lat="46.069540000" lon="-72.444120000">
<ele>0</ele>
<time>2026-09-04T06:40:13Z</time>
</trkpt>
<trkpt lat="46.074470000" lon="-72.453030000">
<ele>0</ele>
<time>2026-09-04T06:40:14Z</time>
</trkpt>
<trkpt lat="46.077950000" lon="-72.459320000">
<ele>0</ele>
<time>2026-09-04T06:40:15Z</time>
</trkpt>
<trkpt lat="46.080300000" lon="-72.463580000">
<ele>0</ele>
<time>2026-09-04T06:40:16Z</time>
</trkpt>
<trkpt lat="46.080940000" lon="-72.464750000">
<ele>0</ele>
<time>2026-09-04T06:40:17Z</time>
</trkpt>
<trkpt lat="46.080470000" lon="-72.465300000">
<ele>0</ele>
<time>2026-09-04T06:40:18Z</time>
</trkpt>
<trkpt lat="46.080450000" lon="-72.465320000">
<ele>0</ele>
<time>2026-09-04T06:40:19Z</time>
</trkpt>
<trkpt lat="46.080450000" lon="-72.465320000">
<ele>0</ele>
<time>2026-09-04T06:40:20Z</time>
</trkpt>
<trkpt lat="46.078130000" lon="-72.467980000">
<ele>0</ele>
<time>2026-09-04T06:40:21Z</time>
</trkpt>
<trkpt lat="46.076850000" lon="-72.469450000">
<ele>0</ele>
<time>2026-09-04T06:40:22Z</time>
</trkpt>
<trkpt lat="46.073330000" lon="-72.473350000">
<ele>0</ele>
<time>2026-09-04T06:40:23Z</time>
</trkpt>
<trkpt lat="46.071080000" lon="-72.475920000">
<ele>0</ele>
<time>2026-09-04T06:40:24Z</time>
</trkpt>
<trkpt lat="46.069810000" lon="-72.477380000">
<ele>0</ele>
<time>2026-09-04T06:40:25Z</time>
</trkpt>
<trkpt lat="46.068980000" lon="-72.478350000">
<ele>0</ele>
<time>2026-09-04T06:40:26Z</time>
</trkpt>
<trkpt lat="46.068980000" lon="-72.478350000">
<ele>0</ele>
<time>2026-09-04T06:40:27Z</time>
</trkpt>
<trkpt lat="46.067150000" lon="-72.480470000">
<ele>0</ele>
<time>2026-09-04T06:40:28Z</time>
</trkpt>
<trkpt lat="46.065610000" lon="-72.482180000">
<ele>0</ele>
<time>2026-09-04T06:40:29Z</time>
</trkpt>
<trkpt lat="46.064410000" lon="-72.483510000">
<ele>0</ele>
<time>2026-09-04T06:40:30Z</time>
</trkpt>
<trkpt lat="46.064170000" lon="-72.483070000">
<ele>0</ele>
<time>2026-09-04T06:40:31Z</time>
</trkpt>
<trkpt lat="46.063710000" lon="-72.482270000">
<ele>0</ele>
<time>2026-09-04T06:40:32Z</time>
</trkpt>
<trkpt lat="46.061760000" lon="-72.478880000">
<ele>0</ele>
<time>2026-09-04T06:40:33Z</time>
</trkpt>
<trkpt lat="46.060850000" lon="-72.477270000">
<ele>0</ele>
<time>2026-09-04T06:40:34Z</time>
</trkpt>
<trkpt lat="46.055100000" lon="-72.466880000">
<ele>0</ele>
<time>2026-09-04T06:40:35Z</time>
</trkpt>
<trkpt lat="46.055100000" lon="-72.466880000">
<ele>0</ele>
<time>2026-09-04T06:40:36Z</time>
</trkpt>
<trkpt lat="46.051680000" lon="-72.460630000">
<ele>0</ele>
<time>2026-09-04T06:40:37Z</time>
</trkpt>
<trkpt lat="46.049130000" lon="-72.455930000">
<ele>0</ele>
<time>2026-09-04T06:40:38Z</time>
</trkpt>
<trkpt lat="46.041440000" lon="-72.441760000">
<ele>0</ele>
<time>2026-09-04T06:40:39Z</time>
</trkpt>
<trkpt lat="46.040320000" lon="-72.439730000">
<ele>0</ele>
<time>2026-09-04T06:40:40Z</time>
</trkpt>
<trkpt lat="46.040210000" lon="-72.439520000">
<ele>0</ele>
<time>2026-09-04T06:40:41Z</time>
</trkpt>
<trkpt lat="46.039510000" lon="-72.440340000">
<ele>0</ele>
<time>2026-09-04T06:40:42Z</time>
</trkpt>
<trkpt lat="46.038670000" lon="-72.441310000">
<ele>0</ele>
<time>2026-09-04T06:40:43Z</time>
</trkpt>
<trkpt lat="46.038380000" lon="-72.441640000">
<ele>0</ele>
<time>2026-09-04T06:40:44Z</time>
</trkpt>
<trkpt lat="46.038220000" lon="-72.441870000">
<ele>0</ele>
<time>2026-09-04T06:40:45Z</time>
</trkpt>
<trkpt lat="46.037930000" lon="-72.442380000">
<ele>0</ele>
<time>2026-09-04T06:40:46Z</time>
</trkpt>
<trkpt lat="46.037780000" lon="-72.442690000">
<ele>0</ele>
<time>2026-09-04T06:40:47Z</time>
</trkpt>
<trkpt lat="46.037620000" lon="-72.443060000">
<ele>0</ele>
<time>2026-09-04T06:40:48Z</time>
</trkpt>
<trkpt lat="46.037540000" lon="-72.443290000">
<ele>0</ele>
<time>2026-09-04T06:40:49Z</time>
</trkpt>
<trkpt lat="46.037400000" lon="-72.443690000">
<ele>0</ele>
<time>2026-09-04T06:40:50Z</time>
</trkpt>
<trkpt lat="46.037330000" lon="-72.444010000">
<ele>0</ele>
<time>2026-09-04T06:40:51Z</time>
</trkpt>
<trkpt lat="46.037270000" lon="-72.444250000">
<ele>0</ele>
<time>2026-09-04T06:40:52Z</time>
</trkpt>
<trkpt lat="46.037230000" lon="-72.444530000">
<ele>0</ele>
<time>2026-09-04T06:40:53Z</time>
</trkpt>
<trkpt lat="46.037230000" lon="-72.444530000">
<ele>0</ele>
<time>2026-09-04T06:40:54Z</time>
</trkpt>
<trkpt lat="46.037140000" lon="-72.445420000">
<ele>0</ele>
<time>2026-09-04T06:40:55Z</time>
</trkpt>
<trkpt lat="46.037070000" lon="-72.446300000">
<ele>0</ele>
<time>2026-09-04T06:40:56Z</time>
</trkpt>
<trkpt lat="46.036820000" lon="-72.449650000">
<ele>0</ele>
<time>2026-09-04T06:40:57Z</time>
</trkpt>
<trkpt lat="46.036520000" lon="-72.453510000">
<ele>0</ele>
<time>2026-09-04T06:40:58Z</time>
</trkpt>
<trkpt lat="46.036410000" lon="-72.454670000">
<ele>0</ele>
<time>2026-09-04T06:40:59Z</time>
</trkpt>
<trkpt lat="46.036290000" lon="-72.455330000">
<ele>0</ele>
<time>2026-09-04T06:41:00Z</time>
</trkpt>
<trkpt lat="46.036030000" lon="-72.456530000">
<ele>0</ele>
<time>2026-09-04T06:41:01Z</time>
</trkpt>
<trkpt lat="46.035800000" lon="-72.457510000">
<ele>0</ele>
<time>2026-09-04T06:41:02Z</time>
</trkpt>
<trkpt lat="46.035720000" lon="-72.457750000">
<ele>0</ele>
<time>2026-09-04T06:41:03Z</time>
</trkpt>
<trkpt lat="46.035510000" lon="-72.458300000">
<ele>0</ele>
<time>2026-09-04T06:41:04Z</time>
</trkpt>
<trkpt lat="46.035230000" lon="-72.458830000">
<ele>0</ele>
<time>2026-09-04T06:41:05Z</time>
</trkpt>
<trkpt lat="46.034290000" lon="-72.460410000">
<ele>0</ele>
<time>2026-09-04T06:41:06Z</time>
</trkpt>
<trkpt lat="46.034040000" lon="-72.460920000">
<ele>0</ele>
<time>2026-09-04T06:41:07Z</time>
</trkpt>
<trkpt lat="46.033840000" lon="-72.461520000">
<ele>0</ele>
<time>2026-09-04T06:41:08Z</time>
</trkpt>
<trkpt lat="46.033730000" lon="-72.461930000">
<ele>0</ele>
<time>2026-09-04T06:41:09Z</time>
</trkpt>
<trkpt lat="46.033550000" lon="-72.462740000">
<ele>0</ele>
<time>2026-09-04T06:41:10Z</time>
</trkpt>
<trkpt lat="46.033320000" lon="-72.464070000">
<ele>0</ele>
<time>2026-09-04T06:41:11Z</time>
</trkpt>
<trkpt lat="46.033120000" lon="-72.464990000">
<ele>0</ele>
<time>2026-09-04T06:41:12Z</time>
</trkpt>
<trkpt lat="46.032910000" lon="-72.465850000">
<ele>0</ele>
<time>2026-09-04T06:41:13Z</time>
</trkpt>
<trkpt lat="46.031960000" lon="-72.469390000">
<ele>0</ele>
<time>2026-09-04T06:41:14Z</time>
</trkpt>
<trkpt lat="46.031840000" lon="-72.469880000">
<ele>0</ele>
<time>2026-09-04T06:41:15Z</time>
</trkpt>
<trkpt lat="46.031750000" lon="-72.470480000">
<ele>0</ele>
<time>2026-09-04T06:41:16Z</time>
</trkpt>
<trkpt lat="46.031720000" lon="-72.470850000">
<ele>0</ele>
<time>2026-09-04T06:41:17Z</time>
</trkpt>
<trkpt lat="46.031710000" lon="-72.471140000">
<ele>0</ele>
<time>2026-09-04T06:41:18Z</time>
</trkpt>
<trkpt lat="46.031770000" lon="-72.471950000">
<ele>0</ele>
<time>2026-09-04T06:41:19Z</time>
</trkpt>
<trkpt lat="46.031850000" lon="-72.472650000">
<ele>0</ele>
<time>2026-09-04T06:41:20Z</time>
</trkpt>
<trkpt lat="46.032160000" lon="-72.475730000">
<ele>0</ele>
<time>2026-09-04T06:41:21Z</time>
</trkpt>
<trkpt lat="46.032170000" lon="-72.476560000">
<ele>0</ele>
<time>2026-09-04T06:41:22Z</time>
</trkpt>
<trkpt lat="46.032140000" lon="-72.477080000">
<ele>0</ele>
<time>2026-09-04T06:41:23Z</time>
</trkpt>
<trkpt lat="46.032090000" lon="-72.477390000">
<ele>0</ele>
<time>2026-09-04T06:41:24Z</time>
</trkpt>
<trkpt lat="46.031880000" lon="-72.478920000">
<ele>0</ele>
<time>2026-09-04T06:41:25Z</time>
</trkpt>
<trkpt lat="46.031520000" lon="-72.481430000">
<ele>0</ele>
<time>2026-09-04T06:41:26Z</time>
</trkpt>
<trkpt lat="46.031330000" lon="-72.483250000">
<ele>0</ele>
<time>2026-09-04T06:41:27Z</time>
</trkpt>
<trkpt lat="46.031230000" lon="-72.483890000">
<ele>0</ele>
<time>2026-09-04T06:41:28Z</time>
</trkpt>
<trkpt lat="46.031070000" lon="-72.484510000">
<ele>0</ele>
<time>2026-09-04T06:41:29Z</time>
</trkpt>
<trkpt lat="46.030810000" lon="-72.485420000">
<ele>0</ele>
<time>2026-09-04T06:41:30Z</time>
</trkpt>
<trkpt lat="46.030540000" lon="-72.486040000">
<ele>0</ele>
<time>2026-09-04T06:41:31Z</time>
</trkpt>
<trkpt lat="46.030280000" lon="-72.486460000">
<ele>0</ele>
<time>2026-09-04T06:41:32Z</time>
</trkpt>
<trkpt lat="46.030140000" lon="-72.486630000">
<ele>0</ele>
<time>2026-09-04T06:41:33Z</time>
</trkpt>
<trkpt lat="46.029920000" lon="-72.486870000">
<ele>0</ele>
<time>2026-09-04T06:41:34Z</time>
</trkpt>
<trkpt lat="46.029410000" lon="-72.487520000">
<ele>0</ele>
<time>2026-09-04T06:41:35Z</time>
</trkpt>
<trkpt lat="46.029130000" lon="-72.487930000">
<ele>0</ele>
<time>2026-09-04T06:41:36Z</time>
</trkpt>
<trkpt lat="46.028500000" lon="-72.489010000">
<ele>0</ele>
<time>2026-09-04T06:41:37Z</time>
</trkpt>
<trkpt lat="46.028010000" lon="-72.488470000">
<ele>0</ele>
<time>2026-09-04T06:41:38Z</time>
</trkpt>
<trkpt lat="46.028010000" lon="-72.488470000">
<ele>0</ele>
<time>2026-09-04T06:41:39Z</time>
</trkpt>
<trkpt lat="46.027340000" lon="-72.487670000">
<ele>0</ele>
<time>2026-09-04T06:41:40Z</time>
</trkpt>
<trkpt lat="46.027060000" lon="-72.487250000">
<ele>0</ele>
<time>2026-09-04T06:41:41Z</time>
</trkpt>
<trkpt lat="46.026950000" lon="-72.487020000">
<ele>0</ele>
<time>2026-09-04T06:41:42Z</time>
</trkpt>
<trkpt lat="46.026960000" lon="-72.486540000">
<ele>0</ele>
<time>2026-09-04T06:41:43Z</time>
</trkpt>
<trkpt lat="46.026970000" lon="-72.485760000">
<ele>0</ele>
<time>2026-09-04T06:41:44Z</time>
</trkpt>
<trkpt lat="46.026990000" lon="-72.485050000">
<ele>0</ele>
<time>2026-09-04T06:41:45Z</time>
</trkpt>
<trkpt lat="46.027120000" lon="-72.483970000">
<ele>0</ele>
<time>2026-09-04T06:41:46Z</time>
</trkpt>
<trkpt lat="46.027160000" lon="-72.483590000">
<ele>0</ele>
<time>2026-09-04T06:41:47Z</time>
</trkpt>
<trkpt lat="46.027120000" lon="-72.481900000">
<ele>0</ele>
<time>2026-09-04T06:41:48Z</time>
</trkpt>
<trkpt lat="46.027120000" lon="-72.481510000">
<ele>0</ele>
<time>2026-09-04T06:41:49Z</time>
</trkpt>
<trkpt lat="46.027140000" lon="-72.481100000">
<ele>0</ele>
<time>2026-09-04T06:41:50Z</time>
</trkpt>
<trkpt lat="46.027140000" lon="-72.481100000">
<ele>0</ele>
<time>2026-09-04T06:41:51Z</time>
</trkpt>
<trkpt lat="46.027210000" lon="-72.480620000">
<ele>0</ele>
<time>2026-09-04T06:41:52Z</time>
</trkpt>
<trkpt lat="46.027250000" lon="-72.480010000">
<ele>0</ele>
<time>2026-09-04T06:41:53Z</time>
</trkpt>
<trkpt lat="46.027210000" lon="-72.476370000">
<ele>0</ele>
<time>2026-09-04T06:41:54Z</time>
</trkpt>
<trkpt lat="46.027150000" lon="-72.473420000">
<ele>0</ele>
<time>2026-09-04T06:41:55Z</time>
</trkpt>
<trkpt lat="46.027110000" lon="-72.471790000">
<ele>0</ele>
<time>2026-09-04T06:41:56Z</time>
</trkpt>
<trkpt lat="46.027090000" lon="-72.469790000">
<ele>0</ele>
<time>2026-09-04T06:41:57Z</time>
</trkpt>
<trkpt lat="46.027060000" lon="-72.469200000">
<ele>0</ele>
<time>2026-09-04T06:41:58Z</time>
</trkpt>
<trkpt lat="46.026990000" lon="-72.468530000">
<ele>0</ele>
<time>2026-09-04T06:41:59Z</time>
</trkpt>
<trkpt lat="46.026910000" lon="-72.467950000">
<ele>0</ele>
<time>2026-09-04T06:42:00Z</time>
</trkpt>
<trkpt lat="46.026860000" lon="-72.467710000">
<ele>0</ele>
<time>2026-09-04T06:42:01Z</time>
</trkpt>
<trkpt lat="46.026600000" lon="-72.466550000">
<ele>0</ele>
<time>2026-09-04T06:42:02Z</time>
</trkpt>
<trkpt lat="46.026020000" lon="-72.464540000">
<ele>0</ele>
<time>2026-09-04T06:42:03Z</time>
</trkpt>
<trkpt lat="46.021800000" lon="-72.450520000">
<ele>0</ele>
<time>2026-09-04T06:42:04Z</time>
</trkpt>
<trkpt lat="46.021000000" lon="-72.447990000">
<ele>0</ele>
<time>2026-09-04T06:42:05Z</time>
</trkpt>
<trkpt lat="46.020340000" lon="-72.445870000">
<ele>0</ele>
<time>2026-09-04T06:42:06Z</time>
</trkpt>
<trkpt lat="46.020200000" lon="-72.445540000">
<ele>0</ele>
<time>2026-09-04T06:42:07Z</time>
</trkpt>
<trkpt lat="46.019770000" lon="-72.444240000">
<ele>0</ele>
<time>2026-09-04T06:42:08Z</time>
</trkpt>
<trkpt lat="46.019530000" lon="-72.443610000">
<ele>0</ele>
<time>2026-09-04T06:42:09Z</time>
</trkpt>
<trkpt lat="46.019260000" lon="-72.443050000">
<ele>0</ele>
<time>2026-09-04T06:42:10Z</time>
</trkpt>
<trkpt lat="46.018980000" lon="-72.442550000">
<ele>0</ele>
<time>2026-09-04T06:42:11Z</time>
</trkpt>
<trkpt lat="46.018730000" lon="-72.442170000">
<ele>0</ele>
<time>2026-09-04T06:42:12Z</time>
</trkpt>
<trkpt lat="46.018520000" lon="-72.441900000">
<ele>0</ele>
<time>2026-09-04T06:42:13Z</time>
</trkpt>
<trkpt lat="46.018310000" lon="-72.441650000">
<ele>0</ele>
<time>2026-09-04T06:42:14Z</time>
</trkpt>
<trkpt lat="46.017790000" lon="-72.441130000">
<ele>0</ele>
<time>2026-09-04T06:42:15Z</time>
</trkpt>
<trkpt lat="46.017500000" lon="-72.440870000">
<ele>0</ele>
<time>2026-09-04T06:42:16Z</time>
</trkpt>
<trkpt lat="46.016730000" lon="-72.440140000">
<ele>0</ele>
<time>2026-09-04T06:42:17Z</time>
</trkpt>
<trkpt lat="46.016420000" lon="-72.439810000">
<ele>0</ele>
<time>2026-09-04T06:42:18Z</time>
</trkpt>
<trkpt lat="46.016060000" lon="-72.439310000">
<ele>0</ele>
<time>2026-09-04T06:42:19Z</time>
</trkpt>
<trkpt lat="46.015700000" lon="-72.438750000">
<ele>0</ele>
<time>2026-09-04T06:42:20Z</time>
</trkpt>
<trkpt lat="46.015310000" lon="-72.438140000">
<ele>0</ele>
<time>2026-09-04T06:42:21Z</time>
</trkpt>
<trkpt lat="46.015040000" lon="-72.437780000">
<ele>0</ele>
<time>2026-09-04T06:42:22Z</time>
</trkpt>
<trkpt lat="46.014850000" lon="-72.437590000">
<ele>0</ele>
<time>2026-09-04T06:42:23Z</time>
</trkpt>
<trkpt lat="46.014130000" lon="-72.437110000">
<ele>0</ele>
<time>2026-09-04T06:42:24Z</time>
</trkpt>
<trkpt lat="46.013640000" lon="-72.436990000">
<ele>0</ele>
<time>2026-09-04T06:42:25Z</time>
</trkpt>
<trkpt lat="46.013320000" lon="-72.436990000">
<ele>0</ele>
<time>2026-09-04T06:42:26Z</time>
</trkpt>
<trkpt lat="46.013120000" lon="-72.437020000">
<ele>0</ele>
<time>2026-09-04T06:42:27Z</time>
</trkpt>
<trkpt lat="46.012560000" lon="-72.437140000">
<ele>0</ele>
<time>2026-09-04T06:42:28Z</time>
</trkpt>
<trkpt lat="46.010570000" lon="-72.437680000">
<ele>0</ele>
<time>2026-09-04T06:42:29Z</time>
</trkpt>
<trkpt lat="46.010190000" lon="-72.437740000">
<ele>0</ele>
<time>2026-09-04T06:42:30Z</time>
</trkpt>
<trkpt lat="46.009880000" lon="-72.437700000">
<ele>0</ele>
<time>2026-09-04T06:42:31Z</time>
</trkpt>
<trkpt lat="46.009770000" lon="-72.437690000">
<ele>0</ele>
<time>2026-09-04T06:42:32Z</time>
</trkpt>
<trkpt lat="46.009360000" lon="-72.437520000">
<ele>0</ele>
<time>2026-09-04T06:42:33Z</time>
</trkpt>
<trkpt lat="46.008810000" lon="-72.437170000">
<ele>0</ele>
<time>2026-09-04T06:42:34Z</time>
</trkpt>
<trkpt lat="46.008430000" lon="-72.436780000">
<ele>0</ele>
<time>2026-09-04T06:42:35Z</time>
</trkpt>
<trkpt lat="46.008230000" lon="-72.436500000">
<ele>0</ele>
<time>2026-09-04T06:42:36Z</time>
</trkpt>
<trkpt lat="46.005330000" lon="-72.431260000">
<ele>0</ele>
<time>2026-09-04T06:42:37Z</time>
</trkpt>
<trkpt lat="46.003650000" lon="-72.428220000">
<ele>0</ele>
<time>2026-09-04T06:42:38Z</time>
</trkpt>
<trkpt lat="46.000080000" lon="-72.421820000">
<ele>0</ele>
<time>2026-09-04T06:42:39Z</time>
</trkpt>
<trkpt lat="45.995670000" lon="-72.413960000">
<ele>0</ele>
<time>2026-09-04T06:42:40Z</time>
</trkpt>
<trkpt lat="45.992610000" lon="-72.408540000">
<ele>0</ele>
<time>2026-09-04T06:42:41Z</time>
</trkpt>
<trkpt lat="45.991190000" lon="-72.405980000">
<ele>0</ele>
<time>2026-09-04T06:42:42Z</time>
</trkpt>
<trkpt lat="45.989600000" lon="-72.403170000">
<ele>0</ele>
<time>2026-09-04T06:42:43Z</time>
</trkpt>
<trkpt lat="45.986530000" lon="-72.397810000">
<ele>0</ele>
<time>2026-09-04T06:42:44Z</time>
</trkpt>
<trkpt lat="45.985790000" lon="-72.396470000">
<ele>0</ele>
<time>2026-09-04T06:42:45Z</time>
</trkpt>
<trkpt lat="45.985000000" lon="-72.395060000">
<ele>0</ele>
<time>2026-09-04T06:42:46Z</time>
</trkpt>
<trkpt lat="45.984540000" lon="-72.394260000">
<ele>0</ele>
<time>2026-09-04T06:42:47Z</time>
</trkpt>
<trkpt lat="45.983710000" lon="-72.392710000">
<ele>0</ele>
<time>2026-09-04T06:42:48Z</time>
</trkpt>
<trkpt lat="45.981250000" lon="-72.388260000">
<ele>0</ele>
<time>2026-09-04T06:42:49Z</time>
</trkpt>
<trkpt lat="45.979560000" lon="-72.385230000">
<ele>0</ele>
<time>2026-09-04T06:42:50Z</time>
</trkpt>
<trkpt lat="45.975730000" lon="-72.378290000">
<ele>0</ele>
<time>2026-09-04T06:42:51Z</time>
</trkpt>
<trkpt lat="45.974050000" lon="-72.375250000">
<ele>0</ele>
<time>2026-09-04T06:42:52Z</time>
</trkpt>
<trkpt lat="45.972460000" lon="-72.377170000">
<ele>0</ele>
<time>2026-09-04T06:42:53Z</time>
</trkpt>
<trkpt lat="45.972460000" lon="-72.377170000">
<ele>0</ele>
<time>2026-09-04T06:42:54Z</time>
</trkpt>
<trkpt lat="45.971310000" lon="-72.378600000">
<ele>0</ele>
<time>2026-09-04T06:42:55Z</time>
</trkpt>
<trkpt lat="45.970330000" lon="-72.379810000">
<ele>0</ele>
<time>2026-09-04T06:42:56Z</time>
</trkpt>
<trkpt lat="45.969240000" lon="-72.381080000">
<ele>0</ele>
<time>2026-09-04T06:42:57Z</time>
</trkpt>
<trkpt lat="45.967000000" lon="-72.383690000">
<ele>0</ele>
<time>2026-09-04T06:42:58Z</time>
</trkpt>
<trkpt lat="45.965900000" lon="-72.384960000">
<ele>0</ele>
<time>2026-09-04T06:42:59Z</time>
</trkpt>
<trkpt lat="45.964250000" lon="-72.386930000">
<ele>0</ele>
<time>2026-09-04T06:43:00Z</time>
</trkpt>
<trkpt lat="45.960870000" lon="-72.391000000">
<ele>0</ele>
<time>2026-09-04T06:43:01Z</time>
</trkpt>
<trkpt lat="45.956340000" lon="-72.396450000">
<ele>0</ele>
<time>2026-09-04T06:43:02Z</time>
</trkpt>
<trkpt lat="45.952850000" lon="-72.400620000">
<ele>0</ele>
<time>2026-09-04T06:43:03Z</time>
</trkpt>
<trkpt lat="45.948920000" lon="-72.405230000">
<ele>0</ele>
<time>2026-09-04T06:43:04Z</time>
</trkpt>
<trkpt lat="45.946050000" lon="-72.408590000">
<ele>0</ele>
<time>2026-09-04T06:43:05Z</time>
</trkpt>
<trkpt lat="45.944060000" lon="-72.410970000">
<ele>0</ele>
<time>2026-09-04T06:43:06Z</time>
</trkpt>
<trkpt lat="45.942840000" lon="-72.412450000">
<ele>0</ele>
<time>2026-09-04T06:43:07Z</time>
</trkpt>
<trkpt lat="45.938360000" lon="-72.417960000">
<ele>0</ele>
<time>2026-09-04T06:43:08Z</time>
</trkpt>
<trkpt lat="45.935480000" lon="-72.421470000">
<ele>0</ele>
<time>2026-09-04T06:43:09Z</time>
</trkpt>
<trkpt lat="45.934100000" lon="-72.423080000">
<ele>0</ele>
<time>2026-09-04T06:43:10Z</time>
</trkpt>
</trkseg>
</trk>
</gpx>
